createdAt,value
2022-12-12T00:00:10.336Z,24.70
2022-12-12T00:04:14.856Z,22.70
2022-12-12T00:08:17.872Z,24.55
2022-12-12T00:12:20.611Z,23.00
2022-12-12T00:16:23.938Z,24.37
2022-12-12T00:20:28.417Z,22.47
2022-12-12T00:24:31.035Z,22.53
2022-12-12T00:28:33.971Z,22.63
2022-12-12T00:32:36.958Z,22.50
2022-12-12T00:36:40.952Z,24.93
2022-12-12T00:40:43.575Z,22.00
2022-12-12T00:44:46.242Z,23.87
2022-12-12T00:48:50.557Z,24.77
2022-12-12T00:52:56.697Z,25.47
2022-12-12T00:56:59.315Z,24.10
2022-12-12T01:01:06.332Z,23.37
2022-12-12T01:05:09.984Z,22.40
2022-12-12T01:09:14.151Z,22.63
2022-12-12T01:13:16.832Z,23.23
2022-12-12T01:17:19.665Z,22.10
2022-12-12T01:21:22.524Z,22.97
2022-12-12T01:25:26.877Z,25.40
2022-12-12T01:29:30.118Z,22.17
2022-12-12T01:33:33.055Z,21.03
2022-12-12T01:37:35.726Z,21.65
2022-12-12T01:41:42.969Z,22.40
2022-12-12T01:46:35.606Z,23.60
2022-12-12T01:50:38.582Z,22.47
2022-12-12T01:54:43.011Z,21.47
2022-12-12T01:58:48.931Z,22.10
2022-12-12T02:02:53.751Z,22.27
2022-12-12T02:06:56.808Z,23.77
2022-12-12T02:10:59.472Z,22.73
2022-12-12T02:15:03.818Z,25.50
2022-12-12T02:19:35.238Z,21.50
2022-12-12T02:23:51.768Z,23.03
2022-12-12T02:28:18.459Z,29.60
2022-12-12T02:32:26.633Z,28.10
2022-12-12T02:36:34.363Z,25.43
2022-12-12T02:40:39.864Z,26.07
2022-12-12T02:44:44.751Z,24.40
2022-12-12T02:48:52.743Z,20.93
2022-12-12T02:52:55.414Z,23.17
2022-12-12T02:56:59.693Z,20.97
2022-12-12T03:01:13.575Z,21.53
2022-12-12T03:05:52.795Z,21.40
2022-12-12T03:10:01.896Z,23.33
2022-12-12T03:14:10.720Z,23.13
2022-12-12T03:18:22.628Z,23.30
2022-12-12T03:22:30.053Z,21.03
2022-12-12T03:26:36.849Z,23.90
2022-12-12T03:30:44.347Z,23.03
2022-12-12T03:34:50.162Z,23.97
2022-12-12T03:38:58.314Z,23.57
2022-12-12T03:43:05.396Z,22.47
2022-12-12T03:47:11.368Z,22.37
2022-12-12T03:51:18.117Z,23.93
2022-12-12T03:55:26.022Z,22.83
2022-12-12T03:59:32.326Z,25.13
2022-12-12T04:03:40.221Z,24.60
2022-12-12T04:07:45.497Z,24.53
2022-12-12T04:12:15.729Z,23.37
2022-12-12T04:16:24.159Z,23.53
2022-12-12T04:20:48.439Z,21.47
2022-12-12T04:24:55.772Z,22.13
2022-12-12T04:29:04.673Z,23.00
2022-12-12T04:33:10.513Z,24.13
2022-12-12T04:37:16.328Z,21.67
2022-12-12T04:41:19.699Z,24.73
2022-12-12T04:45:26.366Z,22.67
2022-12-12T04:49:30.799Z,23.07
2022-12-12T04:53:35.601Z,22.20
2022-12-12T04:57:44.280Z,22.97
2022-12-12T05:01:55.718Z,24.17
2022-12-12T05:06:00.370Z,25.43
2022-12-12T05:10:03.677Z,23.20
2022-12-12T05:14:08.855Z,24.63
2022-12-12T05:18:13.303Z,23.40
2022-12-12T05:22:16.659Z,24.57
2022-12-12T05:26:21.865Z,23.63
2022-12-12T05:30:24.828Z,22.97
2022-12-12T05:34:28.839Z,24.00
2022-12-12T05:38:31.529Z,22.67
2022-12-12T05:42:34.158Z,24.83
2022-12-12T05:46:37.109Z,23.93
2022-12-12T05:50:41.092Z,21.67
2022-12-12T05:54:44.143Z,27.80
2022-12-12T05:58:46.824Z,27.70
2022-12-12T06:02:49.608Z,27.47
2022-12-12T06:06:53.757Z,26.93
2022-12-12T06:10:56.487Z,26.77
2022-12-12T06:14:59.128Z,27.67
2022-12-12T06:19:01.847Z,26.13
2022-12-12T06:23:06.325Z,27.73
2022-12-12T06:27:09.249Z,23.20
2022-12-12T06:31:12.637Z,23.70
2022-12-12T06:35:16.258Z,24.90
2022-12-12T06:39:20.346Z,25.10
2022-12-12T06:43:23.382Z,23.43
2022-12-12T06:47:26.173Z,23.70
2022-12-12T06:51:31.909Z,25.00
2022-12-12T06:55:36.307Z,24.53
2022-12-12T06:59:38.976Z,26.33
2022-12-12T07:03:41.860Z,24.03
2022-12-12T07:07:44.552Z,23.63
2022-12-12T07:11:48.614Z,25.63
2022-12-12T07:15:51.807Z,24.27
2022-12-12T07:19:54.724Z,27.63
2022-12-12T07:23:57.907Z,26.20
2022-12-12T07:28:02.281Z,26.83
2022-12-12T07:32:05.257Z,27.10
2022-12-12T07:36:08.358Z,33.27
2022-12-12T07:40:12.083Z,33.47
2022-12-12T07:44:16.471Z,29.17
2022-12-12T07:48:19.356Z,24.70
2022-12-12T07:52:22.244Z,26.43
2022-12-12T07:56:25.562Z,25.60
2022-12-12T08:00:29.556Z,26.70
2022-12-12T08:04:32.842Z,27.03
2022-12-12T08:08:35.595Z,26.97
2022-12-12T08:12:38.274Z,26.17
2022-12-12T08:16:42.534Z,30.07
2022-12-12T08:20:45.217Z,27.13
2022-12-12T08:24:49.647Z,31.00
2022-12-12T08:28:52.398Z,25.63
2022-12-12T08:32:56.657Z,28.33
2022-12-12T08:36:59.737Z,31.10
2022-12-12T08:41:03.358Z,28.80
2022-12-12T08:45:07.104Z,28.37
2022-12-12T08:49:11.629Z,30.37
2022-12-12T08:53:14.575Z,27.70
2022-12-12T08:57:21.374Z,26.57
2022-12-12T09:01:28.036Z,27.93
2022-12-12T09:05:32.256Z,29.93
2022-12-12T09:09:35.103Z,26.93
2022-12-12T09:13:38.437Z,26.03
2022-12-12T09:17:41.430Z,24.67
2022-12-12T09:21:46.319Z,23.23
2022-12-12T09:25:49.114Z,26.23
2022-12-12T09:29:51.924Z,25.20
2022-12-12T09:33:55.131Z,27.30
2022-12-12T09:37:59.226Z,26.57
2022-12-12T09:42:11.059Z,26.60
2022-12-12T09:46:19.832Z,27.03
2022-12-12T09:50:26.496Z,29.67
2022-12-12T09:54:30.679Z,28.57
2022-12-12T09:58:40.739Z,24.20
2022-12-12T10:02:56.814Z,26.77
2022-12-12T10:07:04.337Z,19.60
2022-12-12T10:11:30.918Z,19.77
2022-12-12T10:15:36.247Z,20.50
2022-12-12T10:19:47.523Z,24.00
2022-12-12T10:23:53.553Z,20.65
2022-12-12T10:28:11.527Z,20.13
2022-12-12T10:32:23.417Z,24.37
2022-12-12T10:36:36.048Z,21.42
2022-12-12T10:40:48.135Z,20.67
2022-12-12T10:45:03.668Z,19.20
2022-12-12T10:49:15.429Z,20.33
2022-12-12T10:53:18.783Z,17.93
2022-12-12T10:57:24.526Z,17.67
2022-12-12T11:02:07.680Z,17.93
2022-12-12T11:05:55.565Z,21.27
2022-12-12T11:10:02.315Z,16.17
2022-12-12T11:14:23.123Z,19.27
2022-12-12T11:18:27.747Z,17.83
2022-12-12T11:22:33.263Z,21.00
2022-12-12T11:26:43.698Z,17.97
2022-12-12T11:30:46.353Z,18.30
2022-12-12T11:34:53.388Z,17.00
2022-12-12T11:38:57.484Z,15.90
2022-12-12T11:43:17.753Z,15.83
2022-12-12T11:47:23.097Z,14.53
2022-12-12T11:51:35.773Z,17.53
2022-12-12T11:55:48.103Z,14.37
2022-12-12T12:00:03.905Z,14.77
2022-12-12T12:04:17.332Z,14.77
2022-12-12T12:08:31.244Z,14.73
2022-12-12T12:12:44.362Z,13.03
2022-12-12T12:16:52.933Z,15.37
2022-12-12T12:21:19.478Z,12.43
2022-12-12T12:25:32.469Z,15.57
2022-12-12T12:30:05.204Z,12.40
2022-12-12T12:34:13.735Z,13.30
2022-12-12T12:38:23.714Z,14.63
2022-12-12T12:42:46.224Z,11.73
2022-12-12T12:46:56.992Z,11.53
2022-12-12T12:51:04.663Z,11.60
2022-12-12T12:55:13.943Z,8.87
2022-12-12T12:59:19.929Z,10.87
2022-12-12T13:03:25.814Z,11.27
2022-12-12T13:07:33.836Z,9.80
2022-12-12T13:11:42.911Z,12.53
2022-12-12T13:15:50.767Z,11.85
2022-12-12T13:19:55.035Z,10.00
2022-12-12T13:24:00.373Z,10.10
2022-12-12T13:28:07.349Z,11.37
2022-12-12T13:32:24.279Z,11.33
2022-12-12T13:36:30.132Z,9.37
2022-12-12T13:40:39.786Z,9.50
2022-12-12T13:44:45.581Z,9.97
2022-12-12T13:48:50.581Z,10.40
2022-12-12T13:53:20.542Z,8.80
2022-12-12T13:57:26.185Z,8.60
2022-12-12T14:01:37.015Z,11.90
2022-12-12T14:05:42.185Z,11.53
2022-12-12T14:09:49.055Z,19.60
2022-12-12T14:13:53.565Z,14.33
2022-12-12T14:17:59.352Z,9.87
2022-12-12T14:22:03.858Z,13.43
2022-12-12T14:26:40.260Z,9.37
2022-12-12T14:30:48.600Z,11.20
2022-12-12T14:34:54.607Z,13.73
2022-12-12T14:39:04.454Z,10.00
2022-12-12T14:43:21.185Z,9.20
2022-12-12T14:47:25.358Z,12.07
2022-12-12T14:51:30.308Z,14.70
2022-12-12T14:55:34.488Z,18.73
2022-12-12T14:59:39.136Z,29.37
2022-12-12T15:03:44.623Z,21.67
2022-12-12T15:07:47.456Z,18.57
2022-12-12T15:11:52.125Z,21.00
2022-12-12T15:15:54.987Z,17.50
2022-12-12T15:19:59.695Z,18.17
2022-12-12T15:24:02.596Z,19.40
2022-12-12T15:28:06.739Z,18.20
2022-12-12T15:32:18.267Z,20.03
2022-12-12T15:36:27.624Z,20.47
2022-12-12T15:40:31.090Z,18.30
2022-12-12T15:44:35.267Z,21.20
2022-12-12T15:48:37.951Z,46.80
2022-12-12T15:52:40.635Z,38.20
2022-12-12T15:56:50.779Z,24.63
2022-12-12T16:01:03.036Z,23.80
2022-12-12T16:05:07.925Z,23.87
2022-12-12T16:09:18.524Z,20.20
2022-12-12T16:13:26.192Z,19.27
2022-12-12T16:17:31.091Z,19.83
2022-12-12T16:21:36.618Z,19.50
2022-12-12T16:25:39.599Z,21.03
2022-12-12T16:29:42.234Z,20.37
2022-12-12T16:33:46.482Z,19.47
2022-12-12T16:37:49.384Z,26.27
2022-12-12T16:41:52.229Z,24.80
2022-12-12T16:45:56.339Z,22.13
2022-12-12T16:50:00.436Z,22.20
2022-12-12T16:54:03.188Z,29.43
2022-12-12T16:58:06.054Z,32.03
2022-12-12T17:02:18.005Z,36.50
2022-12-12T17:06:22.328Z,29.83
2022-12-12T17:10:26.227Z,35.83
2022-12-12T17:14:29.624Z,35.87
2022-12-12T17:18:32.926Z,31.03
2022-12-12T17:22:37.044Z,31.17
2022-12-12T17:26:40.997Z,29.67
2022-12-12T17:30:45.067Z,32.47
2022-12-12T17:34:49.064Z,34.10
2022-12-12T17:38:53.582Z,32.43
2022-12-12T17:42:56.910Z,33.10
2022-12-12T17:46:59.707Z,34.37
2022-12-12T17:51:04.910Z,58.73
2022-12-12T17:55:55.196Z,92.60
2022-12-12T17:59:32.082Z,92.77
2022-12-12T18:03:35.307Z,75.33
2022-12-12T18:07:38.791Z,58.77
2022-12-12T18:11:47.038Z,59.85
2022-12-12T18:15:54.948Z,56.40
2022-12-12T18:19:57.590Z,55.17
2022-12-12T18:24:00.284Z,52.77
2022-12-12T18:28:04.594Z,42.23
2022-12-12T18:32:07.281Z,34.63
2022-12-12T18:36:11.583Z,83.77
2022-12-12T18:40:14.651Z,26.53
2022-12-12T18:44:19.079Z,40.60
2022-12-12T18:48:21.867Z,68.60
2022-12-12T18:52:24.501Z,49.20
2022-12-12T18:56:29.136Z,58.23
2022-12-12T19:00:33.132Z,44.83
2022-12-12T19:04:35.810Z,61.17
2022-12-12T19:08:38.495Z,54.17
2022-12-12T19:12:41.136Z,43.37
2022-12-12T19:16:45.930Z,43.77
2022-12-12T19:20:49.813Z,47.23
2022-12-12T19:24:52.621Z,44.13
2022-12-12T19:28:56.864Z,48.00
2022-12-12T19:33:01.998Z,43.20
2022-12-12T19:37:04.739Z,37.97
2022-12-12T19:41:08.625Z,38.87
2022-12-12T19:45:11.559Z,34.60
2022-12-12T19:49:17.118Z,34.07
2022-12-12T19:53:19.995Z,40.83
2022-12-12T19:57:26.146Z,40.47
2022-12-12T20:01:31.073Z,35.80
2022-12-12T20:05:35.169Z,34.30
2022-12-12T20:09:37.825Z,31.87
2022-12-12T20:13:40.905Z,35.57
2022-12-12T20:17:43.735Z,32.20
2022-12-12T20:22:00.731Z,33.10
2022-12-12T20:26:08.962Z,34.60
2022-12-12T20:30:13.674Z,37.40
2022-12-12T20:34:18.468Z,38.20
2022-12-12T20:38:24.679Z,43.43
2022-12-12T20:42:27.639Z,40.57
2022-12-12T20:46:31.652Z,39.47
2022-12-12T20:50:34.303Z,41.57
2022-12-12T20:54:38.299Z,32.80
2022-12-12T20:58:41.634Z,29.33
2022-12-12T21:02:44.300Z,31.63
2022-12-12T21:06:49.597Z,37.13
2022-12-12T21:10:54.066Z,29.03
2022-12-12T21:15:01.124Z,34.33
2022-12-12T21:19:07.654Z,33.03
2022-12-12T21:23:10.355Z,26.37
2022-12-12T21:27:16.580Z,27.43
2022-12-12T21:31:21.708Z,47.57
2022-12-12T21:35:24.750Z,41.93
2022-12-12T21:39:29.814Z,69.60
2022-12-12T21:43:35.335Z,71.80
2022-12-12T21:47:38.301Z,104.67
2022-12-12T21:51:41.909Z,35.60
2022-12-12T21:55:44.920Z,32.33
2022-12-12T21:59:49.157Z,31.53
2022-12-12T22:03:51.903Z,30.00
2022-12-12T22:07:54.927Z,35.57
2022-12-12T22:12:03.422Z,53.87
2022-12-12T22:16:12.735Z,30.73
2022-12-12T22:20:15.751Z,33.13
2022-12-12T22:24:18.676Z,35.60
2022-12-12T22:28:21.510Z,37.67
2022-12-12T22:32:25.878Z,29.50
2022-12-12T22:36:34.301Z,33.13
2022-12-12T22:40:36.926Z,37.10
2022-12-12T22:44:39.561Z,29.77
2022-12-12T22:48:43.538Z,29.93
2022-12-12T22:52:46.301Z,31.57
2022-12-12T22:56:49.126Z,32.07
2022-12-12T23:00:52.060Z,26.33
2022-12-12T23:04:56.163Z,24.83
2022-12-12T23:09:01.068Z,24.33
2022-12-12T23:13:03.767Z,24.73
2022-12-12T23:17:06.774Z,26.40
2022-12-12T23:21:16.736Z,25.20
2022-12-12T23:25:20.070Z,25.80
2022-12-12T23:29:23.181Z,25.60
2022-12-12T23:33:26.060Z,26.43
2022-12-12T23:37:30.456Z,26.90
2022-12-12T23:41:34.830Z,26.40
2022-12-12T23:45:37.952Z,24.43
2022-12-12T23:49:40.680Z,27.17
2022-12-12T23:53:45.025Z,24.40
2022-12-12T23:57:47.734Z,28.80
